createdAt,value
2019-02-08T00:01:30.599Z,1.80
2019-02-08T00:04:00.569Z,1.77
2019-02-08T00:06:30.861Z,1.40
2019-02-08T00:09:00.583Z,1.90
2019-02-08T00:11:31.368Z,2.47
2019-02-08T00:14:01.327Z,1.50
2019-02-08T00:16:30.943Z,2.20
2019-02-08T00:19:00.554Z,2.20
2019-02-08T00:21:30.607Z,2.40
2019-02-08T00:24:00.211Z,2.10
2019-02-08T00:26:29.794Z,2.30
2019-02-08T00:28:59.390Z,2.10
2019-02-08T00:31:29.752Z,2.37
2019-02-08T00:33:59.399Z,1.93
2019-02-08T00:36:29.048Z,2.70
2019-02-08T00:38:58.935Z,2.50
2019-02-08T00:41:28.547Z,2.60
2019-02-08T00:43:58.216Z,2.60
2019-02-08T00:46:28.183Z,2.50
2019-02-08T00:48:57.905Z,2.53
2019-02-08T00:51:27.636Z,2.87
2019-02-08T00:53:57.300Z,2.70
2019-02-08T00:56:27.272Z,2.93
2019-02-08T00:58:57.142Z,2.87
2019-02-08T01:01:27.135Z,3.00
2019-02-08T01:03:56.726Z,2.53
2019-02-08T01:06:26.664Z,2.70
2019-02-08T01:08:56.398Z,2.73
2019-02-08T01:11:26.010Z,2.43
2019-02-08T01:13:55.589Z,2.70
2019-02-08T01:16:25.483Z,2.63
2019-02-08T01:18:55.090Z,2.40
2019-02-08T01:21:24.699Z,3.40
2019-02-08T01:23:54.284Z,2.83
2019-02-08T01:26:24.851Z,2.93
2019-02-08T01:28:54.445Z,3.00
2019-02-08T01:31:24.064Z,2.77
2019-02-08T01:33:53.663Z,3.83
2019-02-08T01:36:23.267Z,3.73
2019-02-08T01:38:53.118Z,3.63
2019-02-08T01:41:22.811Z,3.53
2019-02-08T01:43:52.395Z,3.50
2019-02-08T01:46:22.002Z,3.60
2019-02-08T01:48:51.591Z,3.00
2019-02-08T01:51:21.206Z,3.80
2019-02-08T01:53:50.813Z,3.80
2019-02-08T01:56:20.410Z,4.30
2019-02-08T01:58:49.991Z,3.57
2019-02-08T02:01:19.659Z,3.90
2019-02-08T02:03:49.266Z,3.80
2019-02-08T02:06:19.336Z,4.13
2019-02-08T02:08:48.917Z,3.60
2019-02-08T02:11:18.598Z,4.00
2019-02-08T02:13:48.266Z,4.40
2019-02-08T02:16:17.861Z,5.33
2019-02-08T02:18:47.485Z,4.10
2019-02-08T02:21:17.147Z,4.40
2019-02-08T02:23:46.755Z,4.53
2019-02-08T02:26:16.376Z,3.40
2019-02-08T02:28:46.299Z,4.37
2019-02-08T02:31:15.884Z,4.37
2019-02-08T02:33:45.480Z,4.90
2019-02-08T02:36:15.088Z,4.30
2019-02-08T02:38:44.688Z,4.10
2019-02-08T02:41:14.438Z,4.17
2019-02-08T02:43:44.116Z,4.80
2019-02-08T02:46:13.731Z,4.80
2019-02-08T02:48:43.347Z,4.13
2019-02-08T02:51:12.965Z,4.47
2019-02-08T02:53:42.580Z,4.77
2019-02-08T02:56:12.247Z,4.83
2019-02-08T02:58:42.203Z,4.33
2019-02-08T03:01:11.871Z,4.17
2019-02-08T03:03:41.615Z,4.97
2019-02-08T03:06:11.203Z,3.80
2019-02-08T03:08:40.878Z,5.20
2019-02-08T03:11:10.494Z,5.80
2019-02-08T03:13:40.103Z,5.10
2019-02-08T03:16:09.852Z,5.20
2019-02-08T03:18:39.541Z,5.03
2019-02-08T03:21:09.399Z,5.70
2019-02-08T03:23:39.006Z,5.60
2019-02-08T03:26:08.672Z,5.40
2019-02-08T03:28:38.274Z,5.60
2019-02-08T03:31:08.103Z,5.40
2019-02-08T03:33:38.094Z,6.10
2019-02-08T03:36:08.047Z,6.00
2019-02-08T03:38:37.771Z,7.03
2019-02-08T03:41:07.369Z,6.90
2019-02-08T03:43:37.084Z,6.23
2019-02-08T03:46:06.909Z,6.93
2019-02-08T03:48:36.495Z,6.47
2019-02-08T03:51:07.234Z,6.70
2019-02-08T03:53:36.834Z,6.80
2019-02-08T03:56:06.603Z,7.03
2019-02-08T03:58:36.303Z,7.30
2019-02-08T04:01:07.574Z,6.93
2019-02-08T04:03:37.782Z,6.87
2019-02-08T04:06:07.511Z,6.40
2019-02-08T04:08:37.259Z,7.10
2019-02-08T04:11:06.998Z,7.10
2019-02-08T04:13:36.611Z,7.00
2019-02-08T04:16:07.199Z,6.83
2019-02-08T04:18:36.975Z,7.40
2019-02-08T04:21:06.557Z,7.10
2019-02-08T04:23:36.173Z,7.10
2019-02-08T04:26:05.772Z,6.77
2019-02-08T04:28:35.387Z,7.53
2019-02-08T04:31:05.049Z,8.47
2019-02-08T04:33:34.648Z,7.03
2019-02-08T04:36:04.511Z,7.00
2019-02-08T04:38:34.380Z,6.67
2019-02-08T04:41:03.978Z,6.47
2019-02-08T04:43:33.663Z,6.33
2019-02-08T04:46:03.445Z,6.80
2019-02-08T04:48:33.040Z,7.57
2019-02-08T04:51:02.623Z,6.67
2019-02-08T04:53:32.531Z,6.53
2019-02-08T04:56:02.103Z,7.10
2019-02-08T04:58:35.593Z,6.43
2019-02-08T05:01:03.182Z,7.37
2019-02-08T05:03:32.946Z,6.60
2019-02-08T05:06:02.767Z,6.77
2019-02-08T05:08:32.403Z,6.30
2019-02-08T05:11:01.992Z,6.40
2019-02-08T05:13:31.774Z,6.00
2019-02-08T05:16:01.462Z,6.60
2019-02-08T05:18:31.069Z,6.77
2019-02-08T05:21:00.727Z,6.37
2019-02-08T05:23:30.341Z,6.43
2019-02-08T05:25:59.915Z,6.73
2019-02-08T05:28:29.616Z,6.17
2019-02-08T05:30:59.351Z,6.17
2019-02-08T05:33:28.960Z,6.87
2019-02-08T05:35:58.518Z,6.10
2019-02-08T05:38:28.125Z,6.50
2019-02-08T05:40:57.710Z,5.97
2019-02-08T05:43:27.284Z,5.97
2019-02-08T05:45:56.897Z,6.10
2019-02-08T05:48:26.505Z,6.10
2019-02-08T05:50:56.135Z,6.60
2019-02-08T05:53:25.823Z,6.50
2019-02-08T05:55:55.426Z,6.07
2019-02-08T05:58:25.018Z,6.00
2019-02-08T06:00:58.747Z,6.80
2019-02-08T06:03:28.455Z,5.90
2019-02-08T06:05:58.193Z,5.47
2019-02-08T06:08:27.818Z,5.87
2019-02-08T06:10:57.498Z,6.30
2019-02-08T06:13:27.288Z,5.20
2019-02-08T06:15:56.874Z,5.27
2019-02-08T06:18:26.473Z,4.97
2019-02-08T06:20:56.055Z,5.30
2019-02-08T06:23:25.659Z,4.90
2019-02-08T06:25:55.351Z,5.67
2019-02-08T06:28:24.952Z,5.03
2019-02-08T06:30:54.538Z,4.77
2019-02-08T06:33:24.162Z,5.13
2019-02-08T06:35:53.738Z,4.37
2019-02-08T06:38:23.358Z,4.57
2019-02-08T06:40:52.999Z,5.00
2019-02-08T06:43:22.618Z,4.37
2019-02-08T06:45:52.518Z,4.80
2019-02-08T06:48:22.139Z,4.70
2019-02-08T06:50:51.822Z,4.50
2019-02-08T06:53:21.429Z,7.10
2019-02-08T06:55:53.832Z,5.17
2019-02-08T06:58:47.649Z,4.80
2019-02-08T07:01:39.388Z,5.03
2019-02-08T07:04:31.243Z,5.27
2019-02-08T07:07:11.391Z,5.97
2019-02-08T07:09:54.922Z,5.73
2019-02-08T07:12:36.811Z,4.73
2019-02-08T07:15:21.384Z,5.03
2019-02-08T07:18:10.115Z,5.57
2019-02-08T07:20:52.335Z,5.40
2019-02-08T07:23:44.303Z,6.40
2019-02-08T07:26:28.191Z,7.50
2019-02-08T07:29:12.073Z,11.83
2019-02-08T07:31:49.859Z,5.87
2019-02-08T07:34:41.067Z,6.50
2019-02-08T07:37:28.851Z,4.37
2019-02-08T07:40:18.791Z,5.20
2019-02-08T07:43:06.779Z,5.73
2019-02-08T07:45:49.825Z,5.17
2019-02-08T07:48:39.699Z,5.87
2019-02-08T07:51:23.854Z,5.70
2019-02-08T07:54:08.747Z,5.73
2019-02-08T07:56:49.202Z,5.90
2019-02-08T07:59:31.931Z,5.47
2019-02-08T08:02:10.638Z,4.20
2019-02-08T08:04:48.858Z,4.37
2019-02-08T08:07:40.490Z,4.70
2019-02-08T08:10:34.472Z,4.23
2019-02-08T08:13:27.184Z,5.77
2019-02-08T08:16:07.664Z,4.10
2019-02-08T08:18:58.488Z,4.60
2019-02-08T08:21:46.407Z,4.60
2019-02-08T08:24:37.121Z,4.30
2019-02-08T08:27:12.017Z,4.70
2019-02-08T08:29:53.404Z,5.47
2019-02-08T08:32:29.890Z,4.93
2019-02-08T08:35:30.003Z,5.87
2019-02-08T08:38:30.672Z,5.30
2019-02-08T08:41:39.739Z,5.87
2019-02-08T08:44:57.407Z,5.97
2019-02-08T08:48:32.680Z,5.40
2019-02-08T08:51:30.415Z,7.00
2019-02-08T08:54:28.740Z,7.60
2019-02-08T08:57:48.552Z,6.80
2019-02-08T09:00:45.450Z,7.80
2019-02-08T09:03:50.459Z,10.13
2019-02-08T09:06:43.854Z,7.40
2019-02-08T09:09:59.456Z,6.80
2019-02-08T09:13:05.631Z,6.90
2019-02-08T09:16:05.965Z,6.53
2019-02-08T09:19:11.799Z,6.30
2019-02-08T09:22:18.434Z,6.83
2019-02-08T09:25:13.280Z,7.23
2019-02-08T09:28:10.720Z,6.70
2019-02-08T09:31:18.015Z,6.33
2019-02-08T09:34:34.810Z,6.70
2019-02-08T09:37:47.722Z,6.43
2019-02-08T09:40:56.147Z,6.47
2019-02-08T09:43:46.298Z,6.40
2019-02-08T09:46:53.310Z,6.40
2019-02-08T09:50:10.354Z,7.10
2019-02-08T09:53:04.403Z,6.90
2019-02-08T09:56:29.297Z,6.90
2019-02-08T09:59:44.958Z,7.03
2019-02-08T10:03:07.380Z,7.20
2019-02-08T10:06:07.877Z,7.80
2019-02-08T10:09:18.315Z,7.27
2019-02-08T10:12:27.803Z,8.10
2019-02-08T10:15:33.602Z,8.23
2019-02-08T10:18:41.144Z,13.83
2019-02-08T10:21:36.507Z,8.47
2019-02-08T10:24:55.718Z,8.07
2019-02-08T10:28:29.222Z,8.00
2019-02-08T10:31:35.035Z,7.63
2019-02-08T10:34:39.633Z,8.47
2019-02-08T10:37:45.704Z,8.70
2019-02-08T10:40:49.391Z,8.30
2019-02-08T10:44:01.996Z,8.80
2019-02-08T10:47:19.311Z,9.23
2019-02-08T10:50:28.512Z,9.30
2019-02-08T10:53:31.395Z,8.50
2019-02-08T10:56:58.263Z,9.60
2019-02-08T11:00:11.537Z,9.20
2019-02-08T11:03:29.411Z,9.40
2019-02-08T11:06:32.230Z,9.30
2019-02-08T11:09:30.792Z,9.97
2019-02-08T11:12:36.022Z,8.80
2019-02-08T11:16:02.840Z,9.90
2019-02-08T11:19:16.344Z,8.70
2019-02-08T11:21:47.390Z,9.30
2019-02-08T11:24:18.467Z,9.23
2019-02-08T11:26:48.441Z,9.70
2019-02-08T11:29:18.139Z,10.03
2019-02-08T11:31:47.759Z,9.67
2019-02-08T11:34:18.332Z,9.37
2019-02-08T11:36:47.945Z,9.70
2019-02-08T11:39:19.693Z,9.23
2019-02-08T11:41:50.326Z,9.03
2019-02-08T11:44:21.474Z,8.80
2019-02-08T11:46:51.412Z,9.13
2019-02-08T11:49:21.003Z,8.40
2019-02-08T11:51:50.619Z,7.97
2019-02-08T11:54:20.196Z,8.50
2019-02-08T11:56:49.774Z,7.90
2019-02-08T11:59:19.432Z,7.20
2019-02-08T12:01:50.608Z,7.30
2019-02-08T12:04:20.799Z,6.93
2019-02-08T12:06:51.502Z,6.63
2019-02-08T12:09:21.136Z,6.43
2019-02-08T12:11:50.806Z,6.50
2019-02-08T12:14:20.407Z,7.03
2019-02-08T12:16:50.063Z,6.63
2019-02-08T12:19:19.704Z,6.40
2019-02-08T12:21:49.294Z,6.80
2019-02-08T12:24:19.050Z,7.10
2019-02-08T12:26:48.627Z,6.97
2019-02-08T12:29:18.875Z,6.13
2019-02-08T12:31:48.732Z,5.77
2019-02-08T12:34:18.319Z,6.63
2019-02-08T12:36:48.310Z,5.97
2019-02-08T12:39:17.919Z,6.00
2019-02-08T12:41:47.497Z,5.07
2019-02-08T12:44:17.095Z,5.70
2019-02-08T12:46:46.743Z,5.50
2019-02-08T12:49:16.343Z,5.37
2019-02-08T12:51:45.927Z,5.60
2019-02-08T12:54:15.519Z,4.70
2019-02-08T12:56:45.906Z,5.50
2019-02-08T12:59:16.037Z,5.10
2019-02-08T13:01:45.629Z,5.60
2019-02-08T13:04:15.244Z,6.40
2019-02-08T13:06:44.821Z,4.40
2019-02-08T13:09:14.495Z,5.10
2019-02-08T13:11:44.135Z,4.70
2019-02-08T13:14:14.712Z,4.50
2019-02-08T13:16:44.279Z,4.97
2019-02-08T13:19:13.863Z,5.10
2019-02-08T13:21:43.443Z,4.53
2019-02-08T13:24:13.508Z,4.50
2019-02-08T13:26:43.155Z,4.23
2019-02-08T13:29:12.771Z,4.47
2019-02-08T13:31:42.352Z,4.30
2019-02-08T13:34:11.951Z,4.23
2019-02-08T13:36:41.512Z,4.40
2019-02-08T13:39:11.303Z,4.53
2019-02-08T13:41:40.931Z,4.23
2019-02-08T13:44:10.832Z,4.17
2019-02-08T13:46:41.480Z,3.87
2019-02-08T13:49:11.087Z,4.23
2019-02-08T13:51:42.258Z,4.30
2019-02-08T13:54:11.840Z,4.10
2019-02-08T13:56:41.438Z,4.00
2019-02-08T13:59:11.038Z,3.70
2019-02-08T14:01:40.635Z,3.40
2019-02-08T14:04:11.770Z,3.77
2019-02-08T14:06:41.423Z,4.30
2019-02-08T14:09:11.284Z,3.50
2019-02-08T14:11:41.199Z,3.73
2019-02-08T14:14:11.045Z,4.03
2019-02-08T14:16:40.951Z,3.47
2019-02-08T14:19:10.853Z,3.20
2019-02-08T14:21:40.783Z,6.53
2019-02-08T14:24:10.408Z,3.40
2019-02-08T14:26:40.075Z,3.07
2019-02-08T14:29:10.023Z,3.50
2019-02-08T14:31:39.603Z,3.23
2019-02-08T14:34:09.227Z,2.77
2019-02-08T14:36:38.911Z,2.63
2019-02-08T14:39:10.580Z,3.10
2019-02-08T14:41:40.255Z,2.70
2019-02-08T14:44:09.852Z,2.80
2019-02-08T14:46:39.444Z,2.70
2019-02-08T14:49:09.176Z,2.83
2019-02-08T14:51:38.882Z,2.83
2019-02-08T14:54:08.965Z,2.63
2019-02-08T14:56:38.928Z,2.10
2019-02-08T14:59:08.799Z,2.50
2019-02-08T15:01:38.358Z,3.40
2019-02-08T15:04:08.144Z,2.60
2019-02-08T15:06:37.848Z,2.43
2019-02-08T15:09:10.563Z,2.20
2019-02-08T15:11:41.330Z,2.30
2019-02-08T15:14:10.995Z,2.30
2019-02-08T15:16:41.586Z,2.20
2019-02-08T15:19:11.275Z,2.30
2019-02-08T15:21:41.183Z,2.20
2019-02-08T15:24:10.801Z,2.43
2019-02-08T15:26:40.704Z,2.53
2019-02-08T15:29:10.495Z,2.40
2019-02-08T15:31:40.119Z,2.60
2019-02-08T15:34:10.123Z,2.80
2019-02-08T15:36:39.860Z,2.57
2019-02-08T15:39:11.535Z,2.53
2019-02-08T15:41:41.205Z,2.80
2019-02-08T15:44:10.902Z,2.33
2019-02-08T15:46:40.476Z,2.20
2019-02-08T15:49:10.756Z,2.47
2019-02-08T15:51:41.797Z,2.40
2019-02-08T15:54:11.395Z,2.20
2019-02-08T15:56:41.059Z,2.10
2019-02-08T15:59:10.667Z,2.50
2019-02-08T16:01:40.715Z,2.50
2019-02-08T16:04:10.371Z,3.40
2019-02-08T16:06:39.970Z,2.00
2019-02-08T16:09:13.251Z,2.67
2019-02-08T16:11:43.049Z,2.30
2019-02-08T16:14:12.731Z,6.57
2019-02-08T16:16:42.395Z,2.33
2019-02-08T16:19:12.599Z,2.53
2019-02-08T16:21:42.847Z,2.37
2019-02-08T16:24:12.595Z,2.43
2019-02-08T16:26:42.192Z,2.40
2019-02-08T16:29:11.787Z,2.53
2019-02-08T16:31:41.478Z,3.10
2019-02-08T16:34:11.409Z,2.63
2019-02-08T16:36:41.189Z,2.27
2019-02-08T16:39:11.070Z,2.93
2019-02-08T16:41:40.651Z,2.53
2019-02-08T16:44:10.779Z,2.30
2019-02-08T16:46:41.147Z,3.00
2019-02-08T16:49:10.734Z,2.27
2019-02-08T16:51:40.461Z,2.73
2019-02-08T16:54:10.317Z,2.10
2019-02-08T16:56:40.003Z,2.20
2019-02-08T16:59:09.811Z,2.60
2019-02-08T17:01:39.509Z,3.00
2019-02-08T17:04:09.102Z,2.60
2019-02-08T17:06:38.782Z,2.73
2019-02-08T17:09:12.074Z,2.70
2019-02-08T17:11:41.739Z,2.40
2019-02-08T17:14:11.414Z,3.07
2019-02-08T17:16:41.157Z,3.10
2019-02-08T17:19:10.775Z,4.20
2019-02-08T17:21:40.388Z,2.80
2019-02-08T17:24:10.006Z,2.47
2019-02-08T17:26:39.899Z,3.00
2019-02-08T17:29:09.541Z,3.03
2019-02-08T17:31:39.130Z,2.40
2019-02-08T17:34:08.943Z,2.53
2019-02-08T17:36:38.535Z,2.23
2019-02-08T17:39:08.255Z,2.67
2019-02-08T17:41:38.131Z,2.60
2019-02-08T17:44:07.720Z,2.47
2019-02-08T17:46:37.295Z,2.50
2019-02-08T17:49:06.883Z,2.13
2019-02-08T17:51:36.965Z,2.33
2019-02-08T17:54:06.629Z,2.50
2019-02-08T17:56:36.246Z,1.80
2019-02-08T17:59:05.926Z,2.60
2019-02-08T18:01:35.531Z,8.50
2019-02-08T18:04:05.491Z,2.50
2019-02-08T18:06:35.115Z,2.10
2019-02-08T18:09:08.531Z,2.63
2019-02-08T18:11:38.310Z,2.20
2019-02-08T18:14:08.192Z,2.70
2019-02-08T18:16:37.789Z,2.50
2019-02-08T18:19:07.426Z,2.60
2019-02-08T18:21:37.164Z,2.40
2019-02-08T18:24:06.831Z,2.73
2019-02-08T18:26:36.422Z,2.43
2019-02-08T18:29:06.031Z,2.60
2019-02-08T18:31:35.647Z,2.47
2019-02-08T18:34:05.324Z,2.80
2019-02-08T18:36:35.013Z,3.00
2019-02-08T18:39:07.499Z,3.30
2019-02-08T18:41:37.592Z,2.40
2019-02-08T18:44:07.174Z,2.40
2019-02-08T18:46:36.763Z,2.40
2019-02-08T18:49:06.371Z,3.17
2019-02-08T18:51:35.967Z,3.10
2019-02-08T18:54:05.692Z,2.63
2019-02-08T18:56:35.296Z,2.70
2019-02-08T18:59:05.067Z,2.50
2019-02-08T19:01:34.663Z,2.60
2019-02-08T19:04:04.461Z,2.40
2019-02-08T19:06:34.048Z,2.50
2019-02-08T19:09:05.160Z,2.53
2019-02-08T19:11:36.415Z,2.67
2019-02-08T19:14:06.015Z,2.73
2019-02-08T19:16:35.740Z,2.30
2019-02-08T19:19:05.336Z,2.10
2019-02-08T19:21:34.923Z,2.33
2019-02-08T19:24:04.644Z,2.10
2019-02-08T19:26:34.263Z,2.17
2019-02-08T19:29:04.179Z,3.10
2019-02-08T19:31:33.811Z,2.10
2019-02-08T19:34:03.392Z,2.33
2019-02-08T19:36:33.081Z,7.40
2019-02-08T19:39:02.764Z,2.03
2019-02-08T19:41:33.970Z,1.97
2019-02-08T19:44:03.652Z,2.53
2019-02-08T19:46:33.219Z,1.80
2019-02-08T19:49:04.436Z,2.33
2019-02-08T19:51:34.310Z,2.37
2019-02-08T19:54:04.183Z,1.93
2019-02-08T19:56:33.836Z,4.97
2019-02-08T19:59:03.591Z,2.40
2019-02-08T20:01:33.659Z,2.10
2019-02-08T20:04:03.349Z,1.83
2019-02-08T20:06:33.018Z,2.97
2019-02-08T20:09:02.992Z,2.40
2019-02-08T20:11:34.216Z,2.83
2019-02-08T20:14:04.384Z,2.80
2019-02-08T20:16:34.056Z,3.43
2019-02-08T20:19:03.718Z,2.33
2019-02-08T20:21:33.306Z,2.20
2019-02-08T20:24:02.902Z,2.43
2019-02-08T20:26:32.568Z,2.17
2019-02-08T20:29:02.236Z,2.27
2019-02-08T20:31:31.822Z,2.10
2019-02-08T20:34:01.415Z,2.10
2019-02-08T20:36:31.322Z,2.10
2019-02-08T20:39:00.919Z,1.97
2019-02-08T20:41:32.113Z,1.87
2019-02-08T20:44:01.787Z,2.30
2019-02-08T20:46:31.364Z,2.30
2019-02-08T20:49:00.952Z,2.10
2019-02-08T20:51:30.622Z,2.23
2019-02-08T20:54:06.088Z,2.10
2019-02-08T20:56:35.980Z,2.23
2019-02-08T20:59:05.595Z,2.10
2019-02-08T21:01:35.270Z,2.30
2019-02-08T21:04:05.411Z,2.80
2019-02-08T21:06:35.327Z,2.07
2019-02-08T21:09:11.482Z,3.30
2019-02-08T21:11:41.606Z,2.60
2019-02-08T21:14:11.466Z,2.10
2019-02-08T21:16:41.040Z,2.07
2019-02-08T21:19:10.653Z,2.43
2019-02-08T21:21:40.296Z,2.50
2019-02-08T21:24:09.981Z,2.30
2019-02-08T21:26:39.643Z,2.20
2019-02-08T21:29:09.245Z,2.13
2019-02-08T21:31:38.828Z,2.13
2019-02-08T21:34:08.492Z,2.37
2019-02-08T21:36:39.281Z,2.60
2019-02-08T21:39:09.760Z,1.93
2019-02-08T21:41:39.331Z,2.33
2019-02-08T21:44:08.982Z,2.10
2019-02-08T21:46:38.599Z,2.60
2019-02-08T21:49:08.211Z,2.80
2019-02-08T21:51:37.803Z,2.37
2019-02-08T21:54:07.445Z,2.00
2019-02-08T21:56:37.162Z,2.20
2019-02-08T21:59:06.766Z,2.37
2019-02-08T22:01:36.500Z,2.43
2019-02-08T22:04:06.090Z,2.10
2019-02-08T22:06:35.681Z,2.63
2019-02-08T22:09:07.983Z,1.90
2019-02-08T22:11:39.448Z,2.20
2019-02-08T22:14:09.103Z,2.30
2019-02-08T22:16:38.721Z,2.57
2019-02-08T22:19:08.378Z,2.40
2019-02-08T22:21:37.958Z,2.63
2019-02-08T22:24:07.739Z,2.33
2019-02-08T22:26:37.407Z,2.37
2019-02-08T22:29:14.011Z,2.10
2019-02-08T22:31:38.307Z,2.57
2019-02-08T22:34:07.923Z,2.80
2019-02-08T22:36:37.535Z,2.17
2019-02-08T22:39:08.532Z,2.40
2019-02-08T22:41:38.119Z,2.40
2019-02-08T22:44:07.707Z,2.33
2019-02-08T22:46:37.321Z,2.30
2019-02-08T22:49:06.969Z,2.30
2019-02-08T22:51:36.576Z,1.93
2019-02-08T22:54:06.429Z,2.40
2019-02-08T22:56:36.025Z,2.23
2019-02-08T22:59:06.211Z,2.47
2019-02-08T23:01:40.583Z,2.23
2019-02-08T23:04:11.500Z,2.10
2019-02-08T23:06:44.989Z,2.13
2019-02-08T23:09:31.099Z,2.00
2019-02-08T23:12:00.823Z,2.30
2019-02-08T23:14:30.802Z,1.97
2019-02-08T23:17:00.458Z,1.93
2019-02-08T23:19:30.399Z,2.47
2019-02-08T23:22:00.288Z,2.10
2019-02-08T23:24:29.956Z,3.00
2019-02-08T23:26:59.875Z,1.67
2019-02-08T23:29:30.474Z,1.93
2019-02-08T23:32:00.283Z,2.30
2019-02-08T23:34:29.886Z,2.60
2019-02-08T23:37:00.639Z,2.20
2019-02-08T23:39:30.255Z,2.20
2019-02-08T23:41:59.934Z,2.43
2019-02-08T23:44:29.541Z,1.70
2019-02-08T23:46:59.128Z,2.40
2019-02-08T23:49:28.727Z,2.10
2019-02-08T23:51:58.315Z,2.10
2019-02-08T23:54:28.272Z,2.30
2019-02-08T23:56:57.878Z,2.40
2019-02-08T23:59:27.486Z,2.17
